Time;durP1;ratioP1;P1;durP2;ratioP2;P2;SDS_P1;SDS_P2;PMS_P1;PMS_P2;Temp;Humidity;BMP_temperature;BMP_pressure;BME280_temperature;BME280_humidity;BME280_pressure;Samples;Min_cycle;Max_cycle;Signal;HPM_P1;HPM_P2
2021/09/21 00:00:25;;;;;;;5.47;4.00;;;;;;;;;;4774653;29;20046;-82
2021/09/21 00:02:51;;;;;;;5.68;4.43;;;;;;;;;;4774853;30;20035;-83
2021/09/21 00:05:16;;;;;;;5.30;3.90;;;;;;;;;;4788971;29;20063;-82
2021/09/21 00:07:42;;;;;;;6.03;4.25;;;;;;;;;;4765523;30;20180;-84
2021/09/21 00:10:08;;;;;;;5.65;3.78;;;;;;;;;;4793757;29;20043;-83
2021/09/21 00:12:34;;;;;;;5.70;4.40;;;;;;;;;;4778746;29;20039;-83
2021/09/21 00:14:59;;;;;;;5.38;3.97;;;;;;;;;;4775798;30;20126;-84
2021/09/21 00:17:24;;;;;;;7.13;4.07;;;;;;;;;;4775367;30;20035;-82
2021/09/21 00:19:50;;;;;;;5.88;4.32;;;;;;;;;;4788454;30;20034;-83
2021/09/21 00:22:15;;;;;;;5.72;3.78;;;;;;;;;;4789732;29;20055;-84
2021/09/21 00:24:41;;;;;;;6.53;4.28;;;;;;;;;;4790050;29;20038;-84
2021/09/21 00:27:06;;;;;;;6.10;4.18;;;;;;;;;;4795628;29;20039;-84
2021/09/21 00:29:32;;;;;;;6.32;4.50;;;;;;;;;;4745603;30;20035;-83
2021/09/21 00:32:00;;;;;;;5.85;4.22;;;;;;;;;;4775724;30;20062;-84
2021/09/21 00:34:42;;;;;;;6.63;4.53;;;;;;;;;;4790861;29;20046;-83
2021/09/21 00:37:12;;;;;;;6.22;4.45;;;;;;;;;;4795403;29;20042;-83
2021/09/21 00:39:39;;;;;;;6.15;4.55;;;;;;;;;;4797395;29;20031;-85
2021/09/21 00:42:06;;;;;;;5.63;4.25;;;;;;;;;;4779137;29;20027;-82
2021/09/21 00:44:32;;;;;;;7.05;4.55;;;;;;;;;;4782054;29;20035;-84
2021/09/21 00:46:58;;;;;;;5.65;4.10;;;;;;;;;;4798368;29;20130;-84
2021/09/21 00:49:23;;;;;;;6.00;4.38;;;;;;;;;;4792591;29;20521;-84
2021/09/21 00:51:49;;;;;;;5.70;4.15;;;;;;;;;;4775690;30;20428;-82
2021/09/21 00:54:14;;;;;;;6.05;4.32;;;;;;;;;;4788504;30;20083;-84
2021/09/21 00:56:40;;;;;;;7.45;4.70;;;;;;;;;;4791700;29;20036;-84
2021/09/21 00:59:07;;;;;;;6.00;4.25;;;;;;;;;;4789427;30;20039;-84
2021/09/21 01:01:32;;;;;;;6.05;4.50;;;;;;;;;;4761423;30;20102;-83
2021/09/21 01:03:59;;;;;;;7.13;5.22;;;;;;;;;;4758579;30;20123;-82
2021/09/21 01:06:25;;;;;;;6.88;5.18;;;;;;;;;;4774835;30;20031;-83
2021/09/21 01:08:50;;;;;;;7.22;4.80;;;;;;;;;;4775576;30;20035;-82
2021/09/21 01:11:16;;;;;;;8.60;4.97;;;;;;;;;;4760630;30;20492;-84
2021/09/21 01:13:41;;;;;;;5.72;4.53;;;;;;;;;;4793582;29;20035;-83
2021/09/21 01:16:08;;;;;;;6.65;4.90;;;;;;;;;;4790658;29;20488;-84
2021/09/21 01:18:34;;;;;;;6.13;4.75;;;;;;;;;;4785814;30;20415;-82
2021/09/21 01:21:05;;;;;;;7.30;4.78;;;;;;;;;;4775734;29;20035;-82
2021/09/21 01:23:32;;;;;;;6.78;4.90;;;;;;;;;;4790730;30;20045;-83
2021/09/21 01:25:58;;;;;;;6.63;4.90;;;;;;;;;;4791607;29;20046;-84
2021/09/21 01:28:23;;;;;;;7.25;4.95;;;;;;;;;;4787107;29;20064;-85
2021/09/21 01:30:49;;;;;;;8.32;4.88;;;;;;;;;;4791391;29;20078;-83
2021/09/21 01:33:19;;;;;;;7.80;4.85;;;;;;;;;;4775309;30;20035;-83
2021/09/21 01:35:45;;;;;;;7.03;4.85;;;;;;;;;;4787216;29;20031;-82
2021/09/21 01:38:10;;;;;;;7.97;5.05;;;;;;;;;;4775814;30;20039;-83
2021/09/21 01:40:36;;;;;;;7.55;4.95;;;;;;;;;;4766190;29;20095;-83
2021/09/21 01:43:01;;;;;;;8.27;5.47;;;;;;;;;;4773633;30;20032;-84
2021/09/21 01:45:27;;;;;;;7.10;5.00;;;;;;;;;;4760088;30;20039;-83
2021/09/21 01:47:52;;;;;;;7.10;4.90;;;;;;;;;;4770605;30;20039;-85
2021/09/21 01:50:28;;;;;;;6.75;4.68;;;;;;;;;;4800746;29;20095;-83
2021/09/21 01:53:08;;;;;;;8.82;4.55;;;;;;;;;;4789579;29;20424;-85
2021/09/21 02:00:45;;;;;;;6.47;4.70;;;;;;;;;;4789980;30;20035;-82
2021/09/21 02:03:11;;;;;;;5.75;4.22;;;;;;;;;;4774165;30;20400;-84
2021/09/21 02:05:36;;;;;;;6.38;4.28;;;;;;;;;;4790861;29;20626;-84
2021/09/21 02:08:03;;;;;;;6.50;4.30;;;;;;;;;;4769219;30;20032;-84
2021/09/21 02:10:28;;;;;;;7.30;4.65;;;;;;;;;;4792334;29;20402;-82
2021/09/21 02:12:53;;;;;;;7.20;4.38;;;;;;;;;;4776139;29;20035;-83
2021/09/21 02:15:22;;;;;;;6.75;4.78;;;;;;;;;;4774393;30;20046;-83
2021/09/21 02:17:48;;;;;;;6.22;4.50;;;;;;;;;;4794155;29;20400;-82
2021/09/21 02:20:14;;;;;;;6.22;4.60;;;;;;;;;;4774986;30;20122;-82
2021/09/21 02:22:39;;;;;;;6.55;4.45;;;;;;;;;;4790197;29;20515;-84
2021/09/21 02:25:06;;;;;;;7.97;4.80;;;;;;;;;;4792244;29;20520;-83
2021/09/21 02:27:31;;;;;;;7.15;4.47;;;;;;;;;;4793256;29;20039;-82
2021/09/21 02:29:57;;;;;;;6.88;4.72;;;;;;;;;;4789755;29;20039;-83
2021/09/21 02:32:22;;;;;;;6.75;4.78;;;;;;;;;;4762901;30;20044;-85
2021/09/21 02:34:48;;;;;;;7.13;5.07;;;;;;;;;;4780957;30;20050;-83
2021/09/21 02:37:15;;;;;;;10.23;4.57;;;;;;;;;;4776578;29;20050;-83
2021/09/21 02:39:40;;;;;;;7.05;4.93;;;;;;;;;;4777975;29;20119;-82
2021/09/21 02:42:06;;;;;;;6.55;4.50;;;;;;;;;;4792328;29;20515;-84
2021/09/21 02:44:33;;;;;;;7.30;5.03;;;;;;;;;;4788985;29;20054;-82
2021/09/21 02:46:59;;;;;;;7.40;4.85;;;;;;;;;;4782157;29;20051;-85
2021/09/21 02:49:25;;;;;;;8.75;5.03;;;;;;;;;;4789873;29;20042;-85
2021/09/21 02:51:50;;;;;;;6.43;4.32;;;;;;;;;;4774567;30;20063;-82
2021/09/21 02:54:16;;;;;;;7.03;5.00;;;;;;;;;;4786844;29;20526;-84
2021/09/21 02:56:41;;;;;;;7.50;5.00;;;;;;;;;;4772126;29;20040;-83
2021/09/21 02:59:07;;;;;;;7.78;4.85;;;;;;;;;;4772158;30;20062;-84
2021/09/21 03:01:32;;;;;;;6.50;4.85;;;;;;;;;;4790570;29;20035;-82
2021/09/21 03:04:02;;;;;;;6.72;4.50;;;;;;;;;;4773439;30;20654;-82
2021/09/21 03:06:38;;;;;;;7.45;5.22;;;;;;;;;;4789381;29;20039;-84
2021/09/21 03:11:53;;;;;;;10.07;5.50;;;;;;;;;;4795245;29;20027;-83
2021/09/21 03:17:26;;;;;;;7.07;5.20;;;;;;;;;;4793580;29;20046;-84
2021/09/21 03:19:51;;;;;;;7.30;5.40;;;;;;;;;;4793142;29;20432;-83
2021/09/21 03:22:16;;;;;;;7.32;5.13;;;;;;;;;;4778823;29;20110;-83
2021/09/21 03:24:41;;;;;;;8.30;5.10;;;;;;;;;;4777007;29;20062;-82
2021/09/21 03:27:07;;;;;;;6.70;5.18;;;;;;;;;;4786247;29;20054;-84
2021/09/21 03:29:33;;;;;;;11.18;5.78;;;;;;;;;;4776873;29;20043;-85
2021/09/21 03:31:58;;;;;;;7.47;5.05;;;;;;;;;;4786315;29;20062;-82
2021/09/21 03:34:24;;;;;;;6.63;4.90;;;;;;;;;;4786853;29;20094;-82
2021/09/21 03:36:49;;;;;;;6.35;5.03;;;;;;;;;;4759073;30;20043;-82
2021/09/21 03:39:15;;;;;;;7.70;5.50;;;;;;;;;;4787894;29;20411;-84
2021/09/21 03:41:40;;;;;;;7.63;5.45;;;;;;;;;;4760904;30;20407;-83
2021/09/21 03:44:06;;;;;;;11.48;5.40;;;;;;;;;;4781581;29;20027;-82
2021/09/21 03:46:31;;;;;;;6.85;4.93;;;;;;;;;;4772802;29;20035;-84
2021/09/21 03:48:56;;;;;;;7.10;4.97;;;;;;;;;;4760946;29;20130;-82
2021/09/21 03:51:23;;;;;;;8.65;5.20;;;;;;;;;;4751679;29;21879;-84
2021/09/21 03:53:48;;;;;;;8.77;5.65;;;;;;;;;;4791965;29;20043;-83
2021/09/21 03:56:14;;;;;;;7.97;5.28;;;;;;;;;;4770404;30;20103;-84
2021/09/21 03:58:39;;;;;;;7.97;5.57;;;;;;;;;;4785013;29;20125;-82
2021/09/21 04:01:05;;;;;;;9.63;5.65;;;;;;;;;;4755562;29;20046;-84
2021/09/21 04:03:30;;;;;;;7.82;5.70;;;;;;;;;;4787346;29;20039;-82
2021/09/21 04:05:56;;;;;;;8.10;5.07;;;;;;;;;;4751929;30;20086;-84
2021/09/21 04:08:21;;;;;;;8.38;5.50;;;;;;;;;;4759983;30;20118;-83
2021/09/21 04:10:46;;;;;;;8.82;5.40;;;;;;;;;;4760740;29;20039;-82
2021/09/21 04:13:12;;;;;;;11.02;6.10;;;;;;;;;;4777608;30;20565;-82
2021/09/21 04:15:37;;;;;;;9.82;5.55;;;;;;;;;;4789541;29;20039;-82
2021/09/21 04:18:05;;;;;;;7.88;5.80;;;;;;;;;;4787785;29;20038;-83
2021/09/21 04:20:31;;;;;;;8.25;5.40;;;;;;;;;;4758787;30;20027;-83
2021/09/21 04:22:56;;;;;;;9.02;5.50;;;;;;;;;;4783752;30;20120;-82
2021/09/21 04:25:22;;;;;;;9.55;5.60;;;;;;;;;;4772362;30;20039;-83
2021/09/21 04:27:48;;;;;;;7.40;5.78;;;;;;;;;;4772202;30;20130;-83
2021/09/21 04:30:18;;;;;;;8.85;5.53;;;;;;;;;;4771529;30;20034;-84
2021/09/21 04:32:44;;;;;;;9.45;5.40;;;;;;;;;;4774004;30;20403;-84
2021/09/21 04:35:09;;;;;;;7.55;5.50;;;;;;;;;;4758451;30;20134;-82
2021/09/21 04:37:35;;;;;;;6.65;5.45;;;;;;;;;;4772183;30;20122;-84
2021/09/21 04:40:00;;;;;;;7.78;5.10;;;;;;;;;;4789729;29;20031;-84
2021/09/21 04:42:26;;;;;;;7.05;5.22;;;;;;;;;;4788320;29;20104;-82
2021/09/21 04:44:51;;;;;;;9.05;5.30;;;;;;;;;;4787810;29;20393;-83
2021/09/21 04:47:17;;;;;;;9.90;5.07;;;;;;;;;;4789041;29;20031;-84
2021/09/21 04:49:42;;;;;;;8.00;5.07;;;;;;;;;;4746233;29;20043;-82
2021/09/21 04:52:08;;;;;;;10.52;5.30;;;;;;;;;;4785903;29;20134;-84
2021/09/21 04:54:33;;;;;;;7.43;5.20;;;;;;;;;;4774859;29;20043;-83
2021/09/21 04:56:59;;;;;;;9.23;5.35;;;;;;;;;;4790591;29;20043;-83
2021/09/21 04:59:26;;;;;;;7.20;5.32;;;;;;;;;;4774582;30;20032;-82
2021/09/21 05:01:52;;;;;;;7.43;5.55;;;;;;;;;;4767360;30;20046;-82
2021/09/21 05:04:17;;;;;;;8.30;5.47;;;;;;;;;;4775941;30;20031;-83
2021/09/21 05:06:42;;;;;;;7.72;5.40;;;;;;;;;;4761501;30;20046;-84
2021/09/21 05:09:12;;;;;;;8.70;5.82;;;;;;;;;;4770911;29;20035;-84
2021/09/21 05:11:38;;;;;;;7.38;5.78;;;;;;;;;;4765371;29;20043;-82
2021/09/21 05:14:03;;;;;;;8.68;5.80;;;;;;;;;;4787275;29;20419;-84
2021/09/21 05:16:29;;;;;;;9.30;5.85;;;;;;;;;;4789213;29;20040;-83
2021/09/21 05:18:54;;;;;;;7.70;5.53;;;;;;;;;;4778844;30;20036;-84
2021/09/21 05:21:20;;;;;;;10.32;5.75;;;;;;;;;;4776415;30;20101;-84
2021/09/21 05:23:45;;;;;;;7.97;5.75;;;;;;;;;;4745619;30;20035;-83
2021/09/21 05:26:11;;;;;;;7.32;5.65;;;;;;;;;;4787968;29;20035;-82
2021/09/21 05:28:36;;;;;;;8.63;6.25;;;;;;;;;;4785521;29;20119;-84
2021/09/21 05:31:02;;;;;;;10.40;6.10;;;;;;;;;;4790344;30;20043;-82
2021/09/21 05:33:27;;;;;;;7.80;5.97;;;;;;;;;;4789440;29;20042;-82
2021/09/21 05:35:53;;;;;;;10.18;5.90;;;;;;;;;;4773842;30;20039;-82
2021/09/21 05:38:19;;;;;;;9.15;5.72;;;;;;;;;;4791057;29;20476;-82
2021/09/21 05:40:44;;;;;;;10.27;6.03;;;;;;;;;;4791449;29;20031;-84
2021/09/21 05:43:09;;;;;;;8.60;5.88;;;;;;;;;;4781395;29;20207;-83
2021/09/21 05:45:35;;;;;;;9.07;5.57;;;;;;;;;;4776218;30;20027;-83
2021/09/21 05:48:01;;;;;;;7.90;5.75;;;;;;;;;;4789972;29;20531;-82
2021/09/21 05:50:26;;;;;;;9.10;6.20;;;;;;;;;;4787912;29;20045;-82
2021/09/21 05:52:52;;;;;;;8.38;6.10;;;;;;;;;;4774792;30;20047;-83
2021/09/21 05:55:17;;;;;;;10.02;6.22;;;;;;;;;;4786003;29;20032;-82
2021/09/21 05:57:44;;;;;;;8.05;6.22;;;;;;;;;;4771623;30;20066;-83
2021/09/21 06:00:11;;;;;;;9.50;6.30;;;;;;;;;;4776198;30;20067;-84
2021/09/21 06:02:37;;;;;;;10.23;5.78;;;;;;;;;;4787297;29;20035;-84
2021/09/21 06:05:03;;;;;;;12.05;6.45;;;;;;;;;;4770443;30;20407;-82
2021/09/21 06:07:28;;;;;;;8.55;5.63;;;;;;;;;;4786267;29;20027;-83
2021/09/21 06:09:54;;;;;;;15.10;6.22;;;;;;;;;;4789891;29;20039;-84
2021/09/21 06:12:19;;;;;;;10.73;6.55;;;;;;;;;;4792938;29;20052;-84
2021/09/21 06:14:45;;;;;;;11.35;6.20;;;;;;;;;;4774707;30;20404;-82
2021/09/21 06:17:10;;;;;;;10.82;7.03;;;;;;;;;;4782657;30;20051;-84
2021/09/21 06:19:36;;;;;;;10.60;6.40;;;;;;;;;;4779891;29;20035;-81
2021/09/21 06:22:01;;;;;;;11.48;6.78;;;;;;;;;;4791974;29;20027;-82
2021/09/21 06:24:27;;;;;;;9.73;6.25;;;;;;;;;;4805722;29;20034;-81
2021/09/21 06:26:53;;;;;;;10.45;6.55;;;;;;;;;;4766375;30;20039;-81
2021/09/21 06:29:18;;;;;;;12.05;6.72;;;;;;;;;;4788653;29;20049;-81
2021/09/21 06:31:44;;;;;;;8.77;6.13;;;;;;;;;;4792549;29;20479;-81
2021/09/21 06:34:09;;;;;;;8.32;6.22;;;;;;;;;;4786592;29;20051;-83
2021/09/21 06:36:36;;;;;;;8.20;6.05;;;;;;;;;;4786890;29;20072;-84
2021/09/21 06:39:03;;;;;;;8.40;6.22;;;;;;;;;;4791557;29;20594;-84
2021/09/21 06:41:28;;;;;;;10.18;6.28;;;;;;;;;;4772500;30;20031;-84
2021/09/21 06:43:54;;;;;;;10.45;6.22;;;;;;;;;;4774981;30;20051;-84
2021/09/21 06:46:19;;;;;;;11.65;6.45;;;;;;;;;;4800860;29;20046;-83
2021/09/21 06:48:45;;;;;;;12.02;6.63;;;;;;;;;;4791611;29;20031;-84
2021/09/21 06:51:11;;;;;;;10.40;7.28;;;;;;;;;;4762434;30;20138;-83
2021/09/21 06:53:37;;;;;;;9.05;6.75;;;;;;;;;;4791071;29;20027;-82
2021/09/21 06:56:03;;;;;;;13.40;6.88;;;;;;;;;;4790419;29;20467;-84
2021/09/21 06:58:29;;;;;;;8.90;6.57;;;;;;;;;;4788557;29;20122;-82
2021/09/21 07:00:54;;;;;;;15.15;7.00;;;;;;;;;;4790844;30;20461;-82
2021/09/21 07:03:20;;;;;;;10.93;7.22;;;;;;;;;;4773508;30;20070;-82
2021/09/21 07:05:45;;;;;;;13.73;7.30;;;;;;;;;;4762769;30;20108;-82
2021/09/21 07:08:11;;;;;;;11.40;6.95;;;;;;;;;;4792067;29;20050;-82
2021/09/21 07:10:36;;;;;;;9.65;7.18;;;;;;;;;;4788730;29;20039;-82
2021/09/21 07:13:02;;;;;;;9.63;6.90;;;;;;;;;;4773646;29;20091;-82
2021/09/21 07:15:28;;;;;;;10.20;7.78;;;;;;;;;;4799693;29;20046;-84
2021/09/21 07:17:54;;;;;;;11.13;7.80;;;;;;;;;;4788694;29;20133;-83
2021/09/21 07:20:26;;;;;;;12.15;7.97;;;;;;;;;;4767040;30;20113;-84
2021/09/21 07:22:52;;;;;;;10.13;6.88;;;;;;;;;;4793172;29;20049;-83
2021/09/21 07:25:18;;;;;;;11.23;7.18;;;;;;;;;;4793877;29;20122;-84
2021/09/21 07:27:45;;;;;;;12.43;6.90;;;;;;;;;;4786798;29;20505;-82
2021/09/21 07:30:11;;;;;;;11.95;6.88;;;;;;;;;;4772806;30;20035;-84
2021/09/21 07:32:37;;;;;;;20.05;9.25;;;;;;;;;;4790295;29;20031;-84
2021/09/21 07:35:04;;;;;;;16.00;7.30;;;;;;;;;;4771709;30;20096;-84
2021/09/21 07:37:29;;;;;;;13.25;7.10;;;;;;;;;;4788835;29;20035;-84
2021/09/21 07:39:55;;;;;;;15.45;7.57;;;;;;;;;;4760233;29;20049;-84
2021/09/21 07:42:21;;;;;;;13.43;7.10;;;;;;;;;;4796622;29;20114;-84
2021/09/21 07:44:47;;;;;;;15.70;8.65;;;;;;;;;;4774684;29;20104;-81
2021/09/21 07:47:13;;;;;;;18.08;8.18;;;;;;;;;;4791582;29;20035;-82
2021/09/21 07:49:38;;;;;;;16.88;8.25;;;;;;;;;;4779788;30;20043;-84
2021/09/21 07:52:04;;;;;;;18.50;8.48;;;;;;;;;;4771500;29;20067;-82
2021/09/21 07:54:29;;;;;;;10.88;8.45;;;;;;;;;;4780542;29;20054;-82
2021/09/21 07:56:55;;;;;;;12.88;8.63;;;;;;;;;;4776350;29;20905;-83
2021/09/21 07:59:20;;;;;;;13.32;8.88;;;;;;;;;;4764903;30;20039;-84
2021/09/21 08:01:46;;;;;;;12.45;8.95;;;;;;;;;;4788966;29;20043;-84
2021/09/21 08:04:11;;;;;;;13.10;8.85;;;;;;;;;;4786809;30;20536;-82
2021/09/21 08:06:36;;;;;;;11.73;8.30;;;;;;;;;;4771408;30;20047;-81
2021/09/21 08:09:03;;;;;;;11.75;8.52;;;;;;;;;;4798017;29;20038;-82
2021/09/21 08:11:28;;;;;;;15.20;8.30;;;;;;;;;;4777022;30;20458;-81
2021/09/21 08:13:54;;;;;;;14.57;8.23;;;;;;;;;;4772318;30;20031;-81
2021/09/21 08:16:20;;;;;;;13.20;8.23;;;;;;;;;;4781693;29;20059;-84
2021/09/21 08:18:45;;;;;;;11.80;7.65;;;;;;;;;;4782696;29;20042;-82
2021/09/21 08:21:11;;;;;;;13.68;8.20;;;;;;;;;;4793404;29;20562;-84
2021/09/21 08:23:36;;;;;;;13.50;8.10;;;;;;;;;;4785237;29;20085;-82
2021/09/21 08:26:03;;;;;;;14.07;7.90;;;;;;;;;;4748558;29;20084;-82
2021/09/21 08:28:28;;;;;;;12.93;8.15;;;;;;;;;;4765423;30;20043;-81
2021/09/21 08:30:53;;;;;;;13.15;8.20;;;;;;;;;;4788885;29;20040;-84
2021/09/21 08:33:19;;;;;;;17.65;7.97;;;;;;;;;;4774659;29;20349;-84
2021/09/21 08:35:45;;;;;;;12.57;7.97;;;;;;;;;;4796472;29;20475;-84
2021/09/21 08:38:10;;;;;;;13.32;7.85;;;;;;;;;;4753057;30;20035;-84
2021/09/21 08:40:36;;;;;;;11.07;7.55;;;;;;;;;;4792243;29;20043;-81
2021/09/21 08:43:01;;;;;;;15.57;8.30;;;;;;;;;;4765390;30;20038;-84
2021/09/21 08:45:28;;;;;;;12.35;7.88;;;;;;;;;;4793799;29;20041;-84
2021/09/21 08:47:54;;;;;;;11.88;7.75;;;;;;;;;;4763209;30;20492;-82
2021/09/21 08:50:22;;;;;;;9.90;7.15;;;;;;;;;;4796663;29;20130;-84
2021/09/21 08:52:47;;;;;;;9.60;7.13;;;;;;;;;;4795310;29;20055;-84
2021/09/21 08:55:14;;;;;;;11.30;6.88;;;;;;;;;;4796366;29;20038;-81
2021/09/21 08:57:40;;;;;;;10.52;7.03;;;;;;;;;;4782762;30;20043;-82
2021/09/21 09:00:10;;;;;;;8.63;6.40;;;;;;;;;;4791426;30;20039;-84
2021/09/21 09:02:35;;;;;;;8.75;5.80;;;;;;;;;;4787276;29;20024;-82
2021/09/21 09:05:07;;;;;;;9.57;6.15;;;;;;;;;;4792872;29;20039;-82
2021/09/21 09:07:47;;;;;;;11.68;6.13;;;;;;;;;;4785077;29;20073;-82
2021/09/21 09:10:13;;;;;;;9.48;6.30;;;;;;;;;;4790134;30;20377;-82
2021/09/21 09:12:39;;;;;;;9.65;5.75;;;;;;;;;;4793054;29;20061;-81
2021/09/21 09:15:12;;;;;;;8.20;5.15;;;;;;;;;;4792812;29;20126;-84
2021/09/21 09:17:38;;;;;;;8.32;4.82;;;;;;;;;;4793848;29;20607;-82
2021/09/21 09:20:06;;;;;;;7.57;5.07;;;;;;;;;;4776958;30;20500;-82
2021/09/21 09:22:31;;;;;;;10.10;5.45;;;;;;;;;;4785752;29;20035;-84
2021/09/21 09:25:01;;;;;;;8.45;5.22;;;;;;;;;;4785906;29;20131;-84
2021/09/21 09:27:47;;;;;;;7.22;4.38;;;;;;;;;;4790308;30;20027;-82
2021/09/21 09:30:25;;;;;;;8.30;5.60;;;;;;;;;;4781666;29;20023;-82
2021/09/21 09:32:57;;;;;;;9.07;5.13;;;;;;;;;;4784276;29;20121;-82
2021/09/21 09:35:28;;;;;;;6.43;4.10;;;;;;;;;;4790122;29;20281;-82
2021/09/21 09:37:58;;;;;;;3.80;2.67;;;;;;;;;;4797864;29;20038;-84
2021/09/21 09:40:23;;;;;;;6.97;3.60;;;;;;;;;;4787031;29;20031;-84
2021/09/21 09:42:49;;;;;;;6.35;3.60;;;;;;;;;;4785367;29;20047;-82
2021/09/21 09:45:26;;;;;;;7.40;3.60;;;;;;;;;;4777010;29;20035;-82
2021/09/21 09:47:53;;;;;;;5.32;3.40;;;;;;;;;;4786368;30;20043;-82
2021/09/21 09:50:18;;;;;;;5.53;3.67;;;;;;;;;;4776511;30;20126;-84
2021/09/21 09:52:44;;;;;;;6.22;3.70;;;;;;;;;;4790106;30;20579;-84
2021/09/21 09:55:10;;;;;;;7.43;3.67;;;;;;;;;;4791413;29;20074;-84
2021/09/21 09:57:40;;;;;;;5.45;3.60;;;;;;;;;;4776348;30;20061;-81
2021/09/21 10:00:07;;;;;;;7.72;4.35;;;;;;;;;;4781494;29;20042;-82
2021/09/21 10:02:32;;;;;;;5.65;3.83;;;;;;;;;;4793490;29;20031;-84
2021/09/21 10:04:58;;;;;;;5.60;4.07;;;;;;;;;;4793604;29;20038;-82
2021/09/21 10:07:24;;;;;;;5.25;3.58;;;;;;;;;;4774589;30;20036;-84
2021/09/21 10:09:50;;;;;;;7.10;3.58;;;;;;;;;;4782707;29;20074;-83
2021/09/21 10:12:16;;;;;;;6.85;4.10;;;;;;;;;;4791343;29;20515;-84
2021/09/21 10:14:41;;;;;;;5.60;3.60;;;;;;;;;;4782381;29;20035;-84
2021/09/21 10:17:07;;;;;;;5.32;3.70;;;;;;;;;;4798918;29;20108;-81
2021/09/21 10:19:36;;;;;;;6.03;3.78;;;;;;;;;;4762534;29;20070;-82
2021/09/21 10:22:03;;;;;;;6.75;3.90;;;;;;;;;;4794026;29;20030;-82
2021/09/21 10:24:37;;;;;;;6.45;3.90;;;;;;;;;;4791379;29;20200;-82
2021/09/21 10:27:09;;;;;;;6.18;3.58;;;;;;;;;;4789836;29;20039;-84
2021/09/21 10:29:36;;;;;;;6.70;3.60;;;;;;;;;;4785085;29;20066;-84
2021/09/21 10:32:12;;;;;;;7.15;3.83;;;;;;;;;;4775210;30;20043;-84
2021/09/21 10:34:44;;;;;;;6.22;3.88;;;;;;;;;;4785401;29;20119;-84
2021/09/21 10:37:11;;;;;;;7.28;4.22;;;;;;;;;;4789703;29;20035;-82
2021/09/21 10:39:37;;;;;;;7.03;4.65;;;;;;;;;;4790556;29;20040;-84
2021/09/21 10:42:08;;;;;;;6.60;3.72;;;;;;;;;;4790380;29;20404;-84
2021/09/21 10:44:34;;;;;;;7.05;4.18;;;;;;;;;;4786342;29;20607;-82
2021/09/21 10:47:05;;;;;;;7.00;4.38;;;;;;;;;;4790724;29;20039;-83
2021/09/21 10:49:32;;;;;;;11.15;5.07;;;;;;;;;;4796099;29;20061;-82
2021/09/21 10:52:05;;;;;;;6.55;4.07;;;;;;;;;;4787692;29;20070;-82
2021/09/21 10:54:36;;;;;;;6.47;4.28;;;;;;;;;;4795403;29;20063;-83
2021/09/21 10:57:15;;;;;;;7.57;4.50;;;;;;;;;;4784245;29;20395;-82
2021/09/21 10:59:52;;;;;;;7.57;4.38;;;;;;;;;;4805220;29;20133;-83
2021/09/21 11:02:22;;;;;;;6.95;4.13;;;;;;;;;;4789712;29;20027;-84
2021/09/21 11:04:47;;;;;;;8.20;4.72;;;;;;;;;;4790270;29;20035;-85
2021/09/21 11:07:14;;;;;;;7.45;4.30;;;;;;;;;;4795469;29;20050;-85
2021/09/21 11:09:40;;;;;;;5.90;4.28;;;;;;;;;;4804691;29;20047;-85
2021/09/21 11:12:11;;;;;;;7.15;4.68;;;;;;;;;;4763450;29;20058;-84
2021/09/21 11:14:42;;;;;;;6.75;4.65;;;;;;;;;;4784285;29;20127;-82
2021/09/21 11:17:10;;;;;;;8.07;5.35;;;;;;;;;;4790887;29;20039;-84
2021/09/21 11:19:37;;;;;;;10.27;4.95;;;;;;;;;;4787894;30;20056;-84
2021/09/21 11:22:09;;;;;;;7.85;4.40;;;;;;;;;;4790112;29;22468;-84
2021/09/21 11:24:37;;;;;;;8.18;4.47;;;;;;;;;;4784478;29;20024;-82
2021/09/21 11:27:05;;;;;;;8.20;4.68;;;;;;;;;;4780982;30;20039;-83
2021/09/21 11:29:31;;;;;;;7.53;4.68;;;;;;;;;;4780139;30;20088;-82
2021/09/21 11:31:57;;;;;;;7.05;4.93;;;;;;;;;;4796045;29;20142;-84
2021/09/21 11:34:29;;;;;;;8.30;5.47;;;;;;;;;;4789940;29;20126;-85
2021/09/21 11:37:02;;;;;;;10.10;5.20;;;;;;;;;;4779882;30;20127;-84
2021/09/21 11:39:30;;;;;;;7.32;5.00;;;;;;;;;;4787887;29;20047;-82
2021/09/21 11:41:56;;;;;;;9.88;5.10;;;;;;;;;;4781733;29;20038;-85
2021/09/21 11:44:21;;;;;;;8.27;4.90;;;;;;;;;;4785825;29;20039;-82
2021/09/21 11:46:56;;;;;;;6.55;4.78;;;;;;;;;;4798032;29;20430;-85
2021/09/21 11:49:21;;;;;;;8.27;4.80;;;;;;;;;;4779693;29;20063;-85
2021/09/21 11:51:47;;;;;;;7.10;5.45;;;;;;;;;;4775050;30;20066;-82
2021/09/21 11:54:12;;;;;;;8.00;5.32;;;;;;;;;;4788762;30;20033;-82
2021/09/21 11:56:42;;;;;;;7.85;4.60;;;;;;;;;;4744601;30;20039;-82
2021/09/21 11:59:07;;;;;;;8.98;4.88;;;;;;;;;;4789713;29;22424;-83
2021/09/21 12:01:33;;;;;;;7.35;4.63;;;;;;;;;;4791651;29;20034;-84
2021/09/21 12:03:58;;;;;;;6.68;4.70;;;;;;;;;;4755390;29;20039;-83
2021/09/21 12:06:34;;;;;;;6.50;4.43;;;;;;;;;;4791026;29;20031;-82
2021/09/21 12:09:02;;;;;;;7.80;4.80;;;;;;;;;;4793190;29;20039;-85
2021/09/21 12:11:28;;;;;;;6.50;4.28;;;;;;;;;;4787816;29;20130;-84
2021/09/21 12:13:56;;;;;;;7.50;4.10;;;;;;;;;;4773842;29;20046;-84
2021/09/21 12:16:21;;;;;;;5.68;3.80;;;;;;;;;;4793811;29;20040;-82
2021/09/21 12:18:46;;;;;;;5.43;3.85;;;;;;;;;;4783203;30;20034;-82
2021/09/21 12:21:16;;;;;;;5.72;3.65;;;;;;;;;;4789610;29;20119;-82
2021/09/21 12:23:47;;;;;;;6.38;4.07;;;;;;;;;;4786713;29;20063;-83
2021/09/21 12:26:19;;;;;;;6.78;3.83;;;;;;;;;;4785270;30;20035;-84
2021/09/21 12:28:47;;;;;;;5.47;3.65;;;;;;;;;;4797315;29;20031;-82
2021/09/21 12:31:26;;;;;;;7.05;4.45;;;;;;;;;;4780513;30;20070;-81
2021/09/21 12:33:53;;;;;;;6.25;4.13;;;;;;;;;;4801435;29;20092;-82
2021/09/21 12:36:24;;;;;;;7.25;3.58;;;;;;;;;;4792093;29;20032;-83
2021/09/21 12:38:55;;;;;;;5.95;3.80;;;;;;;;;;4783102;29;20052;-83
2021/09/21 12:41:21;;;;;;;5.38;3.97;;;;;;;;;;4786589;29;20050;-82
2021/09/21 12:43:52;;;;;;;8.40;3.90;;;;;;;;;;4793128;29;20039;-83
2021/09/21 12:46:18;;;;;;;5.25;3.13;;;;;;;;;;4792864;29;20039;-83
2021/09/21 12:48:43;;;;;;;5.85;3.50;;;;;;;;;;4789601;30;20050;-84
2021/09/21 12:51:10;;;;;;;5.88;3.85;;;;;;;;;;4785585;29;20043;-84
2021/09/21 12:53:36;;;;;;;7.50;3.83;;;;;;;;;;4790753;29;20077;-84
2021/09/21 12:56:05;;;;;;;5.60;3.53;;;;;;;;;;4778249;29;20027;-83
2021/09/21 12:58:34;;;;;;;8.27;3.15;;;;;;;;;;4793972;29;20040;-81
2021/09/21 13:01:01;;;;;;;6.50;2.92;;;;;;;;;;4775637;30;20051;-82
2021/09/21 13:03:27;;;;;;;4.95;3.28;;;;;;;;;;4792549;29;20035;-81
2021/09/21 13:05:52;;;;;;;5.45;3.10;;;;;;;;;;4780268;29;20096;-82
2021/09/21 13:08:18;;;;;;;5.15;3.38;;;;;;;;;;4789712;29;20127;-82
2021/09/21 13:10:44;;;;;;;6.00;3.40;;;;;;;;;;4792290;29;20449;-84
2021/09/21 13:13:09;;;;;;;5.68;3.58;;;;;;;;;;4787624;29;20446;-81
2021/09/21 13:15:35;;;;;;;5.47;3.80;;;;;;;;;;4782285;29;20738;-82
2021/09/21 13:18:02;;;;;;;5.95;3.60;;;;;;;;;;4787741;29;20971;-81
2021/09/21 13:20:30;;;;;;;6.78;3.92;;;;;;;;;;4778875;30;20042;-81
2021/09/21 13:22:56;;;;;;;7.47;3.60;;;;;;;;;;4771955;29;20107;-84
2021/09/21 13:25:23;;;;;;;8.52;3.72;;;;;;;;;;4789293;29;20046;-84
2021/09/21 13:27:50;;;;;;;5.63;3.67;;;;;;;;;;4773631;30;20878;-83
2021/09/21 13:30:16;;;;;;;6.68;3.88;;;;;;;;;;4773750;30;20832;-81
2021/09/21 13:32:42;;;;;;;6.00;3.88;;;;;;;;;;4787731;30;20035;-81
2021/09/21 13:35:10;;;;;;;4.30;3.10;;;;;;;;;;4778334;30;20054;-84
2021/09/21 13:37:36;;;;;;;8.13;3.90;;;;;;;;;;4790975;29;20110;-84
2021/09/21 13:40:03;;;;;;;8.73;4.40;;;;;;;;;;4769279;30;20036;-81
2021/09/21 13:42:28;;;;;;;5.93;3.85;;;;;;;;;;4789640;29;20380;-81
2021/09/21 13:44:54;;;;;;;10.80;4.70;;;;;;;;;;4788606;29;20046;-84
2021/09/21 13:47:19;;;;;;;6.40;4.60;;;;;;;;;;4775958;30;20036;-81
2021/09/21 13:49:44;;;;;;;5.78;3.90;;;;;;;;;;4772601;30;20047;-84
2021/09/21 13:52:10;;;;;;;5.60;4.18;;;;;;;;;;4788637;29;20043;-84
2021/09/21 13:54:36;;;;;;;5.47;3.50;;;;;;;;;;4755418;30;20645;-81
2021/09/21 13:57:04;;;;;;;4.97;3.70;;;;;;;;;;4783318;29;20725;-82
2021/09/21 13:59:29;;;;;;;5.55;3.72;;;;;;;;;;4771149;30;20035;-83
2021/09/21 14:01:55;;;;;;;5.50;3.45;;;;;;;;;;4785835;29;20153;-84
2021/09/21 14:04:20;;;;;;;5.45;3.40;;;;;;;;;;4768221;30;20031;-85
2021/09/21 14:06:46;;;;;;;4.70;3.13;;;;;;;;;;4770465;30;20065;-84
2021/09/21 14:09:11;;;;;;;5.63;3.10;;;;;;;;;;4791538;29;20035;-82
2021/09/21 14:11:37;;;;;;;5.05;2.97;;;;;;;;;;4785449;29;20131;-85
2021/09/21 14:14:02;;;;;;;6.55;3.28;;;;;;;;;;4785385;29;20031;-84
2021/09/21 14:16:27;;;;;;;5.05;2.88;;;;;;;;;;4785252;30;20095;-85
2021/09/21 14:18:53;;;;;;;4.30;2.40;;;;;;;;;;4784776;29;20047;-82
2021/09/21 14:21:19;;;;;;;4.72;2.50;;;;;;;;;;4780397;29;20061;-85
2021/09/21 14:23:45;;;;;;;5.05;3.08;;;;;;;;;;4786626;29;20111;-85
2021/09/21 14:26:11;;;;;;;4.70;3.22;;;;;;;;;;4777320;29;20063;-82
2021/09/21 14:28:39;;;;;;;4.70;3.28;;;;;;;;;;4758286;30;20114;-84
2021/09/21 14:31:05;;;;;;;6.80;3.55;;;;;;;;;;4790570;29;20038;-84
2021/09/21 14:33:30;;;;;;;6.07;3.10;;;;;;;;;;4767034;30;20031;-84
2021/09/21 14:35:56;;;;;;;4.07;2.72;;;;;;;;;;4786266;30;20039;-84
2021/09/21 14:38:21;;;;;;;5.07;2.40;;;;;;;;;;4761534;30;20079;-85
2021/09/21 14:40:48;;;;;;;3.30;1.92;;;;;;;;;;4787858;29;20031;-84
2021/09/21 14:43:14;;;;;;;3.70;2.03;;;;;;;;;;4777281;30;20418;-85
2021/09/21 14:45:40;;;;;;;4.93;1.85;;;;;;;;;;4764115;30;20096;-84
2021/09/21 14:48:05;;;;;;;2.97;1.60;;;;;;;;;;4786647;30;20047;-82